createdAt,value
2018-07-06T00:01:00.212Z,7.30
2018-07-06T00:03:39.841Z,6.80
2018-07-06T00:06:19.400Z,5.87
2018-07-06T00:08:59.128Z,7.25
2018-07-06T00:11:38.792Z,5.80
2018-07-06T00:14:18.365Z,6.53
2018-07-06T00:16:58.101Z,6.85
2018-07-06T00:19:37.696Z,8.15
2018-07-06T00:22:17.518Z,7.53
2018-07-06T00:24:57.158Z,7.35
2018-07-06T00:27:36.844Z,7.45
2018-07-06T00:30:16.468Z,7.25
2018-07-06T00:32:56.163Z,7.58
2018-07-06T00:35:35.727Z,6.78
2018-07-06T00:38:15.461Z,7.12
2018-07-06T00:40:54.993Z,6.55
2018-07-06T00:43:34.597Z,6.65
2018-07-06T00:46:14.180Z,7.05
2018-07-06T00:48:47.844Z,6.92
2018-07-06T00:51:27.468Z,8.45
2018-07-06T00:54:07.217Z,7.17
2018-07-06T00:56:46.900Z,7.33
2018-07-06T00:59:26.381Z,6.55
2018-07-06T01:02:06.102Z,7.08
2018-07-06T01:04:45.614Z,6.78
2018-07-06T01:07:25.352Z,6.80
2018-07-06T01:10:05.036Z,5.87
2018-07-06T01:12:50.107Z,6.42
2018-07-06T01:15:34.741Z,6.40
2018-07-06T01:18:14.992Z,6.35
2018-07-06T01:20:54.828Z,7.95
2018-07-06T01:23:34.488Z,5.90
2018-07-06T01:26:14.536Z,6.50
2018-07-06T01:28:54.208Z,6.90
2018-07-06T01:31:33.841Z,7.17
2018-07-06T01:34:13.431Z,5.87
2018-07-06T01:36:53.189Z,6.40
2018-07-06T01:39:32.866Z,6.33
2018-07-06T01:42:12.924Z,5.47
2018-07-06T01:44:52.532Z,6.10
2018-07-06T01:47:32.112Z,6.40
2018-07-06T01:50:11.861Z,5.53
2018-07-06T01:52:51.716Z,5.25
2018-07-06T01:55:31.207Z,6.22
2018-07-06T01:58:10.665Z,6.95
2018-07-06T02:00:50.441Z,5.50
2018-07-06T02:03:30.198Z,5.83
2018-07-06T02:06:09.745Z,5.22
2018-07-06T02:08:49.533Z,6.10
2018-07-06T02:11:29.141Z,6.80
2018-07-06T02:14:02.785Z,6.25
2018-07-06T02:16:42.325Z,5.83
2018-07-06T02:19:22.167Z,6.08
2018-07-06T02:22:01.864Z,6.47
2018-07-06T02:24:41.512Z,6.53
2018-07-06T02:27:21.120Z,6.30
2018-07-06T02:30:00.874Z,5.92
2018-07-06T02:32:40.516Z,7.05
2018-07-06T02:35:20.184Z,6.28
2018-07-06T02:37:59.818Z,6.25
2018-07-06T02:40:39.440Z,6.28
2018-07-06T02:43:19.110Z,5.90
2018-07-06T02:45:58.761Z,6.45
2018-07-06T02:48:38.696Z,5.53
2018-07-06T02:51:18.225Z,5.65
2018-07-06T02:53:57.969Z,5.85
2018-07-06T02:56:37.614Z,6.35
2018-07-06T02:59:17.025Z,5.97
2018-07-06T03:01:56.725Z,5.45
2018-07-06T03:04:36.332Z,5.05
2018-07-06T03:07:16.083Z,5.42
2018-07-06T03:09:55.777Z,6.22
2018-07-06T03:12:35.340Z,4.65
2018-07-06T03:15:15.087Z,5.45
2018-07-06T03:17:54.761Z,5.45
2018-07-06T03:20:34.372Z,6.37
2018-07-06T03:23:14.021Z,5.80
2018-07-06T03:25:53.608Z,6.25
2018-07-06T03:28:33.570Z,5.80
2018-07-06T03:31:13.006Z,5.58
2018-07-06T03:33:52.736Z,5.20
2018-07-06T03:36:32.336Z,5.22
2018-07-06T03:39:13.013Z,6.30
2018-07-06T03:41:52.837Z,6.12
2018-07-06T03:44:32.288Z,4.78
2018-07-06T03:47:11.977Z,5.28
2018-07-06T03:49:51.749Z,5.70
2018-07-06T03:52:31.304Z,5.95
2018-07-06T03:55:04.782Z,5.53
2018-07-06T03:57:44.277Z,5.72
2018-07-06T04:00:23.949Z,5.42
2018-07-06T04:03:03.597Z,4.90
2018-07-06T04:05:43.262Z,6.03
2018-07-06T04:08:22.865Z,5.60
2018-07-06T04:11:02.561Z,5.62
2018-07-06T04:13:42.252Z,5.60
2018-07-06T04:16:21.843Z,6.55
2018-07-06T04:19:08.970Z,6.92
2018-07-06T04:21:48.565Z,6.30
2018-07-06T04:24:28.342Z,5.17
2018-07-06T04:27:08.002Z,5.70
2018-07-06T04:29:47.572Z,6.83
2018-07-06T04:32:27.361Z,5.90
2018-07-06T04:35:07.041Z,4.75
2018-07-06T04:37:46.543Z,5.40
2018-07-06T04:40:26.278Z,5.15
2018-07-06T04:43:06.229Z,5.20
2018-07-06T04:45:46.748Z,6.15
2018-07-06T04:48:26.765Z,5.25
2018-07-06T04:51:06.660Z,6.62
2018-07-06T04:53:46.291Z,5.45
2018-07-06T04:56:26.220Z,6.30
2018-07-06T04:59:05.788Z,6.80
2018-07-06T05:01:45.433Z,5.53
2018-07-06T05:04:24.873Z,5.47
2018-07-06T05:07:04.460Z,5.95
2018-07-06T05:09:44.090Z,6.30
2018-07-06T05:12:23.779Z,6.78
2018-07-06T05:15:03.453Z,5.85
2018-07-06T05:17:42.994Z,7.05
2018-07-06T05:20:22.537Z,6.35
2018-07-06T05:23:02.084Z,6.22
2018-07-06T05:25:41.896Z,6.20
2018-07-06T05:28:21.577Z,7.10
2018-07-06T05:31:01.268Z,6.90
2018-07-06T05:33:40.881Z,6.85
2018-07-06T05:36:20.535Z,7.25
2018-07-06T05:39:00.172Z,8.50
2018-07-06T05:41:39.858Z,7.62
2018-07-06T05:44:19.484Z,8.90
2018-07-06T05:46:59.253Z,8.03
2018-07-06T05:49:39.009Z,7.60
2018-07-06T05:52:18.721Z,9.05
2018-07-06T05:54:58.452Z,7.65
2018-07-06T05:57:38.128Z,8.98
2018-07-06T06:00:17.820Z,9.18
2018-07-06T06:02:57.513Z,7.97
2018-07-06T06:05:37.165Z,7.85
2018-07-06T06:08:04.441Z,8.60
2018-07-06T06:10:32.745Z,7.75
2018-07-06T06:13:01.069Z,8.28
2018-07-06T06:15:29.369Z,6.85
2018-07-06T06:17:57.726Z,7.83
2018-07-06T06:20:26.041Z,7.35
2018-07-06T06:22:54.381Z,8.60
2018-07-06T06:25:22.705Z,7.80
2018-07-06T06:27:51.060Z,7.97
2018-07-06T06:30:19.393Z,9.40
2018-07-06T06:32:47.777Z,11.22
2018-07-06T06:35:16.116Z,7.75
2018-07-06T06:37:44.733Z,9.75
2018-07-06T06:40:13.070Z,10.70
2018-07-06T06:42:41.430Z,18.12
2018-07-06T06:45:09.773Z,19.40
2018-07-06T06:47:38.134Z,23.73
2018-07-06T06:50:06.164Z,26.97
2018-07-06T06:52:34.568Z,28.92
2018-07-06T06:55:02.904Z,30.85
2018-07-06T06:57:31.314Z,33.05
2018-07-06T06:59:59.651Z,32.65
2018-07-06T07:02:28.052Z,31.30
2018-07-06T07:04:56.421Z,31.48
2018-07-06T07:07:24.813Z,30.05
2018-07-06T07:09:53.172Z,31.73
2018-07-06T07:12:21.553Z,31.90
2018-07-06T07:14:49.945Z,28.52
2018-07-06T07:17:18.426Z,31.20
2018-07-06T07:19:46.776Z,33.38
2018-07-06T07:22:15.169Z,31.35
2018-07-06T07:24:43.506Z,33.10
2018-07-06T07:27:11.884Z,31.48
2018-07-06T07:29:40.208Z,33.75
2018-07-06T07:32:08.939Z,35.52
2018-07-06T07:34:37.320Z,35.83
2018-07-06T07:37:05.741Z,34.13
2018-07-06T07:39:34.145Z,34.00
2018-07-06T07:42:02.608Z,37.00
2018-07-06T07:44:31.121Z,35.95
2018-07-06T07:46:59.544Z,39.48
2018-07-06T07:49:27.888Z,38.13
2018-07-06T07:52:09.701Z,40.83
2018-07-06T07:54:42.369Z,38.00
2018-07-06T07:57:10.760Z,36.80
2018-07-06T07:59:39.684Z,41.13
2018-07-06T08:02:08.078Z,39.92
2018-07-06T08:04:36.418Z,40.38
2018-07-06T08:07:04.749Z,43.02
2018-07-06T08:09:33.795Z,42.98
2018-07-06T08:12:03.176Z,40.33
2018-07-06T08:14:31.586Z,40.28
2018-07-06T08:16:59.865Z,40.48
2018-07-06T08:19:28.214Z,40.10
2018-07-06T08:21:56.577Z,40.58
2018-07-06T08:24:24.928Z,40.35
2018-07-06T08:26:53.236Z,42.85
2018-07-06T08:29:21.556Z,38.67
2018-07-06T08:31:49.869Z,37.90
2018-07-06T08:34:29.517Z,39.42
2018-07-06T08:37:38.298Z,38.17
2018-07-06T08:40:06.713Z,39.15
2018-07-06T08:42:35.977Z,40.80
2018-07-06T08:45:04.770Z,39.65
2018-07-06T08:47:33.128Z,39.88
2018-07-06T08:50:02.137Z,38.98
2018-07-06T08:52:30.718Z,38.45
2018-07-06T08:54:59.128Z,39.25
2018-07-06T08:57:28.412Z,38.95
2018-07-06T08:59:56.756Z,36.15
2018-07-06T09:02:25.452Z,35.65
2018-07-06T09:04:54.677Z,37.45
2018-07-06T09:07:23.104Z,37.58
2018-07-06T09:09:51.946Z,36.28
2018-07-06T09:12:20.324Z,38.73
2018-07-06T09:14:48.664Z,40.58
2018-07-06T09:17:17.992Z,41.35
2018-07-06T09:19:46.946Z,37.53
2018-07-06T09:22:15.675Z,40.78
2018-07-06T09:24:44.595Z,40.75
2018-07-06T09:27:12.897Z,40.95
2018-07-06T09:29:41.557Z,40.50
2018-07-06T09:32:10.117Z,39.60
2018-07-06T09:34:38.716Z,38.42
2018-07-06T09:37:07.185Z,37.35
2018-07-06T09:39:35.576Z,37.38
2018-07-06T09:42:03.893Z,38.88
2018-07-06T09:44:31.978Z,41.45
2018-07-06T09:47:00.365Z,37.73
2018-07-06T09:49:28.713Z,36.93
2018-07-06T09:51:57.057Z,38.85
2018-07-06T09:54:25.427Z,37.00
2018-07-06T09:56:53.773Z,35.80
2018-07-06T09:59:22.230Z,36.35
2018-07-06T10:01:50.272Z,35.48
2018-07-06T10:04:18.657Z,35.17
2018-07-06T10:06:46.956Z,34.58
2018-07-06T10:09:15.374Z,36.45
2018-07-06T10:11:43.713Z,35.10
2018-07-06T10:14:12.068Z,32.63
2018-07-06T10:16:40.405Z,30.95
2018-07-06T10:19:08.805Z,29.95
2018-07-06T10:21:37.136Z,30.35
2018-07-06T10:24:05.537Z,29.70
2018-07-06T10:26:33.856Z,30.65
2018-07-06T10:29:14.480Z,31.07
2018-07-06T10:31:54.180Z,31.40
2018-07-06T10:34:22.528Z,31.20
2018-07-06T10:36:50.844Z,27.65
2018-07-06T10:39:19.549Z,27.05
2018-07-06T10:41:47.867Z,23.30
2018-07-06T10:44:16.209Z,20.72
2018-07-06T10:46:44.689Z,21.93
2018-07-06T10:49:12.905Z,25.95
2018-07-06T10:51:41.237Z,21.23
2018-07-06T10:54:09.597Z,18.35
2018-07-06T10:56:37.941Z,19.85
2018-07-06T10:59:06.264Z,21.68
2018-07-06T11:01:34.613Z,19.75
2018-07-06T11:04:02.940Z,19.95
2018-07-06T11:06:31.289Z,21.85
2018-07-06T11:08:59.661Z,20.90
2018-07-06T11:11:28.024Z,22.10
2018-07-06T11:13:56.338Z,21.12
2018-07-06T11:16:24.679Z,22.30
2018-07-06T11:18:53.000Z,20.20
2018-07-06T11:21:21.348Z,20.35
2018-07-06T11:23:49.697Z,20.62
2018-07-06T11:26:18.116Z,20.70
2018-07-06T11:28:46.441Z,19.40
2018-07-06T11:31:14.832Z,19.55
2018-07-06T11:33:43.161Z,16.77
2018-07-06T11:36:11.510Z,15.40
2018-07-06T11:38:39.834Z,17.35
2018-07-06T11:41:08.193Z,18.03
2018-07-06T11:43:36.541Z,16.67
2018-07-06T11:46:04.917Z,17.40
2018-07-06T11:48:33.248Z,18.83
2018-07-06T11:51:01.597Z,18.50
2018-07-06T11:53:29.935Z,18.95
2018-07-06T11:55:58.378Z,16.73
2018-07-06T11:58:26.674Z,17.00
2018-07-06T12:00:55.050Z,16.80
2018-07-06T12:03:23.423Z,18.75
2018-07-06T12:05:51.874Z,18.85
2018-07-06T12:08:20.193Z,17.87
2018-07-06T12:10:48.550Z,16.50
2018-07-06T12:13:18.773Z,15.63
2018-07-06T12:15:47.109Z,16.27
2018-07-06T12:18:15.445Z,15.97
2018-07-06T12:20:43.802Z,16.00
2018-07-06T12:23:15.161Z,15.60
2018-07-06T12:25:43.509Z,16.05
2018-07-06T12:28:11.834Z,14.80
2018-07-06T12:30:40.249Z,14.68
2018-07-06T12:33:08.561Z,15.60
2018-07-06T12:35:36.889Z,15.28
2018-07-06T12:38:05.338Z,14.27
2018-07-06T12:40:33.700Z,12.53
2018-07-06T12:43:02.150Z,13.83
2018-07-06T12:45:30.481Z,14.05
2018-07-06T12:47:58.873Z,15.15
2018-07-06T12:50:27.196Z,17.55
2018-07-06T12:52:55.549Z,14.93
2018-07-06T12:55:23.900Z,14.20
2018-07-06T12:57:52.281Z,15.08
2018-07-06T13:00:20.645Z,13.98
2018-07-06T13:02:49.977Z,13.32
2018-07-06T13:05:18.522Z,14.63
2018-07-06T13:07:47.105Z,13.60
2018-07-06T13:10:15.458Z,10.10
2018-07-06T13:12:43.805Z,11.97
2018-07-06T13:15:12.157Z,10.55
2018-07-06T13:17:40.520Z,12.33
2018-07-06T13:20:08.882Z,10.13
2018-07-06T13:22:37.345Z,10.33
2018-07-06T13:25:05.935Z,11.60
2018-07-06T13:27:34.269Z,8.73
2018-07-06T13:30:02.634Z,10.20
2018-07-06T13:32:30.986Z,8.23
2018-07-06T13:34:59.293Z,8.60
2018-07-06T13:37:27.648Z,7.20
2018-07-06T13:39:55.964Z,4.97
2018-07-06T13:42:24.297Z,4.93
2018-07-06T13:44:52.629Z,4.50
2018-07-06T13:47:20.968Z,4.63
2018-07-06T13:49:49.309Z,5.17
2018-07-06T13:52:17.646Z,3.93
2018-07-06T13:54:45.977Z,4.20
2018-07-06T13:57:14.312Z,4.50
2018-07-06T13:59:49.172Z,3.60
2018-07-06T14:02:17.517Z,3.50
2018-07-06T14:04:45.832Z,4.50
2018-07-06T14:07:14.185Z,4.20
2018-07-06T14:09:42.545Z,4.60
2018-07-06T14:12:10.879Z,4.07
2018-07-06T14:14:39.205Z,3.80
2018-07-06T14:17:07.713Z,3.80
2018-07-06T14:19:36.082Z,3.67
2018-07-06T14:22:04.448Z,3.80
2018-07-06T14:24:32.754Z,3.30
2018-07-06T14:27:01.093Z,4.07
2018-07-06T14:29:29.760Z,4.57
2018-07-06T14:31:58.084Z,7.93
2018-07-06T14:34:26.441Z,5.93
2018-07-06T14:36:54.784Z,5.47
2018-07-06T14:39:22.836Z,6.17
2018-07-06T14:41:51.508Z,6.33
2018-07-06T14:44:19.866Z,7.43
2018-07-06T14:46:48.185Z,6.37
2018-07-06T14:49:16.512Z,4.80
2018-07-06T14:51:44.837Z,4.07
2018-07-06T14:54:13.205Z,3.87
2018-07-06T14:56:41.526Z,5.10
2018-07-06T14:59:09.592Z,4.40
2018-07-06T15:01:37.913Z,4.40
2018-07-06T15:04:06.304Z,4.20
2018-07-06T15:06:34.651Z,4.30
2018-07-06T15:09:03.123Z,4.40
2018-07-06T15:11:31.413Z,4.90
2018-07-06T15:13:59.757Z,4.00
2018-07-06T15:16:28.108Z,4.27
2018-07-06T15:18:56.475Z,3.90
2018-07-06T15:21:24.783Z,4.20
2018-07-06T15:23:53.112Z,3.70
2018-07-06T15:26:21.420Z,3.77
2018-07-06T15:28:49.773Z,3.87
2018-07-06T15:31:18.116Z,3.27
2018-07-06T15:33:46.456Z,4.53
2018-07-06T15:36:14.781Z,3.80
2018-07-06T15:38:42.828Z,4.30
2018-07-06T15:41:11.141Z,4.03
2018-07-06T15:43:39.493Z,3.87
2018-07-06T15:46:07.826Z,4.03
2018-07-06T15:48:36.158Z,3.83
2018-07-06T15:51:04.490Z,4.73
2018-07-06T15:53:32.842Z,4.27
2018-07-06T15:56:01.180Z,4.53
2018-07-06T15:58:29.505Z,4.27
2018-07-06T16:00:57.826Z,3.40
2018-07-06T16:03:26.161Z,3.27
2018-07-06T16:05:54.473Z,3.77
2018-07-06T16:08:22.816Z,3.67
2018-07-06T16:10:51.173Z,3.70
2018-07-06T16:13:19.521Z,3.73
2018-07-06T16:15:47.845Z,3.53
2018-07-06T16:18:16.224Z,3.43
2018-07-06T16:20:44.562Z,5.53
2018-07-06T16:23:12.911Z,3.17
2018-07-06T16:25:41.241Z,3.93
2018-07-06T16:28:09.580Z,3.60
2018-07-06T16:30:37.950Z,3.00
2018-07-06T16:33:06.269Z,2.87
2018-07-06T16:35:34.601Z,2.50
2018-07-06T16:38:02.949Z,2.30
2018-07-06T16:40:31.316Z,2.47
2018-07-06T16:42:59.644Z,2.27
2018-07-06T16:45:27.997Z,2.40
2018-07-06T16:47:56.341Z,2.40
2018-07-06T16:50:24.713Z,2.73
2018-07-06T16:52:53.036Z,2.83
2018-07-06T16:55:21.421Z,2.87
2018-07-06T16:57:49.789Z,3.80
2018-07-06T17:00:18.140Z,4.15
2018-07-06T17:02:46.457Z,5.20
2018-07-06T17:05:14.805Z,4.75
2018-07-06T17:07:43.135Z,5.70
2018-07-06T17:10:11.478Z,6.67
2018-07-06T17:12:39.536Z,32.48
2018-07-06T17:15:07.884Z,28.30
2018-07-06T17:17:36.203Z,13.90
2018-07-06T17:20:04.591Z,5.62
2018-07-06T17:22:32.684Z,5.35
2018-07-06T17:25:01.004Z,5.00
2018-07-06T17:27:29.368Z,5.55
2018-07-06T17:29:57.712Z,5.58
2018-07-06T17:32:26.145Z,5.33
2018-07-06T17:34:54.578Z,5.20
2018-07-06T17:37:22.944Z,5.58
2018-07-06T17:39:51.313Z,5.03
2018-07-06T17:42:19.637Z,4.90
2018-07-06T17:44:48.019Z,8.78
2018-07-06T17:47:16.345Z,16.77
2018-07-06T17:49:44.701Z,15.15
2018-07-06T17:52:13.054Z,69.20
2018-07-06T17:54:41.409Z,37.42
2018-07-06T17:57:09.769Z,23.73
2018-07-06T17:59:38.125Z,48.98
2018-07-06T18:02:06.525Z,23.10
2018-07-06T18:04:34.873Z,14.35
2018-07-06T18:07:03.198Z,4.80
2018-07-06T18:09:31.542Z,4.70
2018-07-06T18:11:59.912Z,4.08
2018-07-06T18:14:28.342Z,4.22
2018-07-06T18:16:56.672Z,4.40
2018-07-06T18:19:25.060Z,4.40
2018-07-06T18:21:53.577Z,4.00
2018-07-06T18:24:21.945Z,4.90
2018-07-06T18:26:50.292Z,4.00
2018-07-06T18:29:18.633Z,4.25
2018-07-06T18:31:47.073Z,3.87
2018-07-06T18:34:15.408Z,3.90
2018-07-06T18:36:43.741Z,3.95
2018-07-06T18:39:12.089Z,4.42
2018-07-06T18:41:40.429Z,3.33
2018-07-06T18:44:08.788Z,3.70
2018-07-06T18:46:37.121Z,4.15
2018-07-06T18:49:05.497Z,3.70
2018-07-06T18:51:33.837Z,3.50
2018-07-06T18:54:02.169Z,4.10
2018-07-06T18:56:30.537Z,4.15
2018-07-06T18:58:58.850Z,4.35
2018-07-06T19:01:27.177Z,4.92
2018-07-06T19:03:55.584Z,6.92
2018-07-06T19:06:23.933Z,9.60
2018-07-06T19:08:52.280Z,9.35
2018-07-06T19:11:20.616Z,10.45
2018-07-06T19:13:48.964Z,11.12
2018-07-06T19:16:17.325Z,11.65
2018-07-06T19:18:45.861Z,11.78
2018-07-06T19:21:14.229Z,11.18
2018-07-06T19:23:42.565Z,11.08
2018-07-06T19:26:10.904Z,12.28
2018-07-06T19:28:39.236Z,11.48
2018-07-06T19:31:07.657Z,11.50
2018-07-06T19:33:35.996Z,9.10
2018-07-06T19:36:04.356Z,11.00
2018-07-06T19:38:32.682Z,10.15
2018-07-06T19:41:01.869Z,9.58
2018-07-06T19:43:30.197Z,11.85
2018-07-06T19:45:58.541Z,10.20
2018-07-06T19:48:26.966Z,11.20
2018-07-06T19:50:55.333Z,11.30
2018-07-06T19:53:23.693Z,11.50
2018-07-06T19:55:52.052Z,12.25
2018-07-06T19:58:20.457Z,11.50
2018-07-06T20:00:48.753Z,11.08
2018-07-06T20:03:17.081Z,11.50
2018-07-06T20:05:45.422Z,11.22
2018-07-06T20:08:13.488Z,10.53
2018-07-06T20:10:41.864Z,10.30
2018-07-06T20:13:11.125Z,9.70
2018-07-06T20:15:39.458Z,8.90
2018-07-06T20:18:07.896Z,9.03
2018-07-06T20:20:36.229Z,9.03
2018-07-06T20:23:04.745Z,9.68
2018-07-06T20:25:33.101Z,8.83
2018-07-06T20:28:01.445Z,10.45
2018-07-06T20:30:29.765Z,9.10
2018-07-06T20:32:58.118Z,8.38
2018-07-06T20:35:26.168Z,8.63
2018-07-06T20:37:54.497Z,8.60
2018-07-06T20:40:22.830Z,9.28
2018-07-06T20:42:51.222Z,10.78
2018-07-06T20:45:19.554Z,7.70
2018-07-06T20:47:47.932Z,25.95
2018-07-06T20:50:16.245Z,11.95
2018-07-06T20:52:44.653Z,9.90
2018-07-06T20:55:12.712Z,8.90
2018-07-06T20:57:41.061Z,7.80
2018-07-06T21:00:09.397Z,9.15
2018-07-06T21:02:37.773Z,9.10
2018-07-06T21:05:06.116Z,8.00
2018-07-06T21:07:34.456Z,9.03
2018-07-06T21:10:02.801Z,9.18
2018-07-06T21:12:30.869Z,10.23
2018-07-06T21:14:59.177Z,8.60
2018-07-06T21:17:27.502Z,9.43
2018-07-06T21:19:55.824Z,9.63
2018-07-06T21:22:24.207Z,9.18
2018-07-06T21:24:52.931Z,9.78
2018-07-06T21:27:21.278Z,9.48
2018-07-06T21:29:49.604Z,10.70
2018-07-06T21:32:17.997Z,10.00
2018-07-06T21:34:46.357Z,9.55
2018-07-06T21:37:14.729Z,10.85
2018-07-06T21:39:43.061Z,9.03
2018-07-06T21:42:11.369Z,8.75
2018-07-06T21:44:39.713Z,10.25
2018-07-06T21:47:08.033Z,10.55
2018-07-06T21:49:36.381Z,10.23
2018-07-06T21:52:04.702Z,9.33
2018-07-06T21:54:33.059Z,9.90
2018-07-06T21:57:01.572Z,9.55
2018-07-06T21:59:29.948Z,10.60
2018-07-06T22:01:58.289Z,10.05
2018-07-06T22:04:26.641Z,10.48
2018-07-06T22:06:54.994Z,11.73
2018-07-06T22:09:23.358Z,12.00
2018-07-06T22:11:51.680Z,11.28
2018-07-06T22:14:20.063Z,11.10
2018-07-06T22:16:48.385Z,10.55
2018-07-06T22:19:16.736Z,10.50
2018-07-06T22:21:45.072Z,12.00
2018-07-06T22:24:13.411Z,11.10
2018-07-06T22:26:41.834Z,11.57
2018-07-06T22:29:10.196Z,11.93
2018-07-06T22:31:38.558Z,12.33
2018-07-06T22:34:06.929Z,12.47
2018-07-06T22:36:35.257Z,11.95
2018-07-06T22:39:04.463Z,11.43
2018-07-06T22:41:32.785Z,11.25
2018-07-06T22:44:01.124Z,12.40
2018-07-06T22:46:29.474Z,12.63
2018-07-06T22:48:57.860Z,13.43
2018-07-06T22:51:26.174Z,12.50
2018-07-06T22:53:54.564Z,11.25
2018-07-06T22:56:22.919Z,11.63
2018-07-06T22:58:51.517Z,11.35
2018-07-06T23:01:19.959Z,11.90
2018-07-06T23:03:48.346Z,12.15
2018-07-06T23:06:16.696Z,13.22
2018-07-06T23:08:45.067Z,14.25
2018-07-06T23:11:13.412Z,12.73
2018-07-06T23:13:41.805Z,13.75
2018-07-06T23:16:10.154Z,13.28
2018-07-06T23:18:38.571Z,12.98
2018-07-06T23:21:07.501Z,12.88
2018-07-06T23:23:35.855Z,13.45
2018-07-06T23:26:04.201Z,13.68
2018-07-06T23:28:32.532Z,14.45
2018-07-06T23:31:00.880Z,14.18
2018-07-06T23:33:28.920Z,13.20
2018-07-06T23:35:57.301Z,14.53
2018-07-06T23:38:25.633Z,11.55
2018-07-06T23:40:53.980Z,12.30
2018-07-06T23:43:22.308Z,15.53
2018-07-06T23:45:50.649Z,13.98
2018-07-06T23:48:18.953Z,13.25
2018-07-06T23:50:47.306Z,12.75
2018-07-06T23:53:15.629Z,12.88
2018-07-06T23:55:43.985Z,13.38
2018-07-06T23:58:12.395Z,12.05
